Time,TemperatureF,DewpointF,PressureIn,WindDirection,WindDirectionDegrees,WindSpeedMPH,WindSpeedGustMPH,Humidity,HourlyPrecipIn,Conditions,Clouds,dailyrainin,SolarRadiationWatts/m^2,SoftwareType,DateUTC
2013-07-01 00:24:00,59.0,44.0,-100.00,NW,323,3.0,6.0,57,0.00,,,0.04,0.000000,,2013-07-01 06:24:00,
2013-07-01 00:33:00,59.0,44.0,-100.00,NW,323,3.0,6.0,57,0.00,,,0.04,0.000000,,2013-07-01 06:33:00,
2013-07-01 00:43:00,59.0,44.0,-100.00,NW,323,3.0,6.0,57,0.00,,,0.04,0.000000,,2013-07-01 06:43:00,
2013-07-01 00:53:00,59.0,44.0,-100.00,NW,323,3.0,6.0,57,0.00,,,0.04,0.000000,,2013-07-01 06:53:00,
2013-07-01 01:22:00,60.0,42.0,-100.00,NW,320,2.0,8.0,51,0.00,,,0.04,0.000000,,2013-07-01 07:22:00,
2013-07-01 01:33:00,60.0,42.0,-100.00,NW,320,2.0,8.0,51,0.00,,,0.04,0.000000,,2013-07-01 07:33:00,
2013-07-01 01:43:00,60.0,42.0,-100.00,NW,320,2.0,8.0,51,0.00,,,0.04,0.000000,,2013-07-01 07:43:00,
2013-07-01 01:53:00,60.0,42.0,-100.00,NW,320,2.0,8.0,51,0.00,,,0.04,0.000000,,2013-07-01 07:53:00,
2013-07-01 02:33:00,56.0,40.0,-100.00,NNW,333,4.0,13.0,54,0.00,,,0.04,0.000000,,2013-07-01 08:33:00,
2013-07-01 02:42:00,56.0,40.0,-100.00,NNW,333,4.0,13.0,54,0.00,,,0.04,0.000000,,2013-07-01 08:42:00,
2013-07-01 02:52:00,56.0,40.0,-100.00,NNW,333,4.0,13.0,54,0.00,,,0.04,0.000000,,2013-07-01 08:52:00,
2013-07-01 03:22:00,58.0,40.0,-100.00,NNW,344,5.0,8.0,52,0.00,,,0.04,0.000000,,2013-07-01 09:22:00,
2013-07-01 03:34:00,58.0,40.0,-100.00,NNW,344,5.0,8.0,52,0.00,,,0.04,0.000000,,2013-07-01 09:34:00,
2013-07-01 03:43:00,58.0,40.0,-100.00,NNW,344,5.0,8.0,52,0.00,,,0.04,0.000000,,2013-07-01 09:43:00,
2013-07-01 03:53:00,58.0,40.0,-100.00,NNW,344,5.0,8.0,52,0.00,,,0.04,0.000000,,2013-07-01 09:53:00,
2013-07-01 04:22:00,58.0,42.0,-100.00,NNW,331,8.0,12.0,55,0.00,,,0.04,0.000000,,2013-07-01 10:22:00,
2013-07-01 04:33:00,58.0,42.0,-100.00,NNW,331,8.0,12.0,55,0.00,,,0.04,0.000000,,2013-07-01 10:33:00,
2013-07-01 04:42:00,58.0,42.0,-100.00,NNW,331,8.0,12.0,55,0.00,,,0.04,0.000000,,2013-07-01 10:42:00,
2013-07-01 04:52:00,58.0,42.0,-100.00,NNW,331,8.0,12.0,55,0.00,,,0.04,0.000000,,2013-07-01 10:52:00,
2013-07-01 05:22:00,55.0,41.0,-100.00,ENE,59,4.0,12.0,59,0.00,,,0.04,0.000000,,2013-07-01 11:22:00,
2013-07-01 05:33:00,55.0,41.0,-100.00,ENE,59,4.0,12.0,59,0.00,,,0.04,0.000000,,2013-07-01 11:33:00,
2013-07-01 05:43:00,55.0,41.0,-100.00,ENE,59,4.0,12.0,59,0.00,,,0.04,0.000000,,2013-07-01 11:43:00,
2013-07-01 05:52:00,55.0,41.0,-100.00,ENE,59,4.0,12.0,59,0.00,,,0.04,0.000000,,2013-07-01 11:52:00,
2013-07-01 06:22:00,54.0,41.0,-100.00,ENE,65,3.0,8.0,62,0.00,,,0.04,1.000000,,2013-07-01 12:22:00,
2013-07-01 06:33:00,54.0,41.0,-100.00,ENE,65,3.0,8.0,62,0.00,,,0.04,1.000000,,2013-07-01 12:33:00,
2013-07-01 06:43:00,54.0,41.0,-100.00,ENE,65,3.0,8.0,62,0.00,,,0.04,1.000000,,2013-07-01 12:43:00,
2013-07-01 06:53:00,54.0,41.0,-100.00,ENE,65,3.0,8.0,62,0.00,,,0.04,1.000000,,2013-07-01 12:53:00,
2013-07-01 07:33:00,54.0,41.0,-100.00,North,10,3.0,9.0,61,0.00,,,0.04,14.000000,,2013-07-01 13:33:00,
2013-07-01 07:43:00,54.0,41.0,-100.00,North,10,3.0,9.0,61,0.00,,,0.04,14.000000,,2013-07-01 13:43:00,
2013-07-01 07:53:00,54.0,41.0,-100.00,North,10,3.0,9.0,61,0.00,,,0.04,14.000000,,2013-07-01 13:53:00,
2013-07-01 08:34:00,61.0,44.0,-100.00,West,259,1.0,4.0,53,0.00,,,0.04,168.000000,,2013-07-01 14:34:00,
2013-07-01 08:43:00,61.0,44.0,-100.00,West,259,1.0,4.0,53,0.00,,,0.04,168.000000,,2013-07-01 14:43:00,
2013-07-01 08:52:00,61.0,44.0,-100.00,West,259,1.0,4.0,53,0.00,,,0.04,168.000000,,2013-07-01 14:52:00,
2013-07-01 09:23:00,67.0,46.0,-100.00,SSE,168,4.0,7.0,46,0.00,,,-99.99,429.000000,,2013-07-01 15:23:00,
2013-07-01 09:34:00,67.0,46.0,-100.00,SSE,168,4.0,7.0,46,0.00,,,-99.99,429.000000,,2013-07-01 15:34:00,
2013-07-01 09:43:00,67.0,46.0,-100.00,SSE,168,4.0,7.0,46,0.00,,,-99.99,429.000000,,2013-07-01 15:43:00,
2013-07-01 09:52:00,67.0,46.0,-100.00,SSE,168,4.0,7.0,46,0.00,,,-99.99,429.000000,,2013-07-01 15:52:00,
2013-07-01 10:33:00,71.0,43.0,-100.00,East,101,4.0,10.0,37,0.00,,,0.04,629.000000,,2013-07-01 16:33:00,
2013-07-01 10:44:00,71.0,43.0,-100.00,East,101,4.0,10.0,37,0.00,,,0.04,629.000000,,2013-07-01 16:44:00,
2013-07-01 10:53:00,71.0,43.0,-100.00,East,101,4.0,10.0,37,0.00,,,0.04,629.000000,,2013-07-01 16:53:00,
2013-07-01 11:23:00,74.0,41.0,-100.00,South,178,5.0,11.0,31,0.00,,,0.04,800.000000,,2013-07-01 17:23:00,
2013-07-01 11:33:00,74.0,41.0,-100.00,South,178,5.0,11.0,31,0.00,,,0.04,800.000000,,2013-07-01 17:33:00,
2013-07-01 11:43:00,74.0,41.0,-100.00,South,178,5.0,11.0,31,0.00,,,0.04,800.000000,,2013-07-01 17:43:00,
2013-07-01 11:53:00,74.0,41.0,-100.00,South,178,5.0,11.0,31,0.00,,,0.04,800.000000,,2013-07-01 17:53:00,
2013-07-01 12:22:00,78.0,44.0,-100.00,SSW,202,7.0,12.0,30,0.00,,,0.04,924.000000,,2013-07-01 18:22:00,
2013-07-01 12:33:00,78.0,44.0,-100.00,SSW,202,7.0,12.0,30,0.00,,,0.04,924.000000,,2013-07-01 18:33:00,
2013-07-01 12:43:00,78.0,44.0,-100.00,SSW,202,7.0,12.0,30,0.00,,,0.04,924.000000,,2013-07-01 18:43:00,
2013-07-01 12:52:00,78.0,44.0,-100.00,SSW,202,7.0,12.0,30,0.00,,,0.04,924.000000,,2013-07-01 18:52:00,
2013-07-01 13:22:00,82.0,42.0,-100.00,South,186,5.0,14.0,24,0.00,,,0.04,995.000000,,2013-07-01 19:22:00,
2013-07-01 13:33:00,82.0,42.0,-100.00,South,186,5.0,14.0,24,0.00,,,0.04,995.000000,,2013-07-01 19:33:00,
2013-07-01 13:44:00,82.0,42.0,-100.00,South,186,5.0,14.0,24,0.00,,,0.04,995.000000,,2013-07-01 19:44:00,
2013-07-01 13:52:00,82.0,42.0,-100.00,South,186,5.0,14.0,24,0.00,,,0.04,995.000000,,2013-07-01 19:52:00,
2013-07-01 14:22:00,81.0,41.0,-100.00,SSW,201,7.0,16.0,24,0.00,,,0.04,892.000000,,2013-07-01 20:22:00,
2013-07-01 14:34:00,81.0,41.0,-100.00,SSW,201,7.0,16.0,24,0.00,,,0.04,892.000000,,2013-07-01 20:34:00,
2013-07-01 14:43:00,81.0,41.0,-100.00,SSW,201,7.0,16.0,24,0.00,,,0.04,892.000000,,2013-07-01 20:43:00,
2013-07-01 14:52:00,81.0,41.0,-100.00,SSW,201,7.0,16.0,24,0.00,,,0.04,892.000000,,2013-07-01 20:52:00,
2013-07-01 15:24:00,83.0,40.0,-100.00,WSW,258,9.0,18.0,22,0.00,,,0.01,882.000000,,2013-07-01 21:24:00,
2013-07-01 15:34:00,83.0,40.0,-100.00,WSW,258,9.0,18.0,22,0.00,,,0.01,882.000000,,2013-07-01 21:34:00,
2013-07-01 15:43:00,83.0,40.0,-100.00,WSW,258,9.0,18.0,22,0.00,,,0.01,882.000000,,2013-07-01 21:43:00,
2013-07-01 15:53:00,83.0,40.0,-100.00,WSW,258,9.0,18.0,22,0.00,,,0.01,882.000000,,2013-07-01 21:53:00,
2013-07-01 16:33:00,81.0,42.0,-100.00,WNW,293,8.0,16.0,25,0.00,,,0.01,599.000000,,2013-07-01 22:33:00,
2013-07-01 16:43:00,81.0,42.0,-100.00,WNW,293,8.0,16.0,25,0.00,,,0.01,599.000000,,2013-07-01 22:43:00,
2013-07-01 16:53:00,81.0,42.0,-100.00,WNW,293,8.0,16.0,25,0.00,,,0.01,599.000000,,2013-07-01 22:53:00,
2013-07-01 17:22:00,80.0,41.0,-100.00,WNW,303,6.0,18.0,25,0.00,,,0.01,358.000000,,2013-07-01 23:22:00,
2013-07-01 17:33:00,80.0,41.0,-100.00,WNW,303,6.0,18.0,25,0.00,,,0.01,358.000000,,2013-07-01 23:33:00,
2013-07-01 17:44:00,80.0,41.0,-100.00,WNW,303,6.0,18.0,25,0.00,,,0.01,358.000000,,2013-07-01 23:44:00,
2013-07-01 17:53:00,80.0,41.0,-100.00,WNW,303,6.0,18.0,25,0.00,,,0.01,358.000000,,2013-07-01 23:53:00,
2013-07-01 18:22:00,84.0,37.0,-100.00,WSW,250,5.0,11.0,19,0.00,,,0.01,539.000000,,2013-07-02 00:22:00,
2013-07-01 18:34:00,84.0,37.0,-100.00,WSW,250,5.0,11.0,19,0.00,,,0.01,539.000000,,2013-07-02 00:34:00,
2013-07-01 18:43:00,84.0,37.0,-100.00,WSW,250,5.0,11.0,19,0.00,,,0.01,539.000000,,2013-07-02 00:43:00,
2013-07-01 18:53:00,84.0,37.0,-100.00,WSW,250,5.0,11.0,19,0.00,,,0.01,539.000000,,2013-07-02 00:53:00,
2013-07-01 19:33:00,78.0,43.0,-100.00,SE,132,5.0,11.0,29,0.00,,,0.01,129.000000,,2013-07-02 01:33:00,
2013-07-01 19:43:00,78.0,43.0,-100.00,SE,132,5.0,11.0,29,0.00,,,0.01,129.000000,,2013-07-02 01:43:00,
2013-07-01 19:53:00,78.0,43.0,-100.00,SE,132,5.0,11.0,29,0.00,,,0.01,129.000000,,2013-07-02 01:53:00,
2013-07-01 20:22:00,74.0,41.0,-100.00,ESE,116,4.0,13.0,31,0.00,,,0.00,109.000000,,2013-07-02 02:22:00,
2013-07-01 20:33:00,74.0,41.0,-100.00,ESE,116,4.0,13.0,31,0.00,,,0.00,109.000000,,2013-07-02 02:33:00,
2013-07-01 20:43:00,74.0,41.0,-100.00,ESE,116,4.0,13.0,31,0.00,,,0.00,109.000000,,2013-07-02 02:43:00,
2013-07-01 20:53:00,74.0,41.0,-100.00,ESE,116,4.0,13.0,31,0.00,,,0.00,109.000000,,2013-07-02 02:53:00,
2013-07-01 21:24:00,71.0,40.0,-100.00,ENE,58,3.0,9.0,33,0.00,,,0.00,9.000000,,2013-07-02 03:24:00,
2013-07-01 21:32:00,71.0,40.0,-100.00,ENE,58,3.0,9.0,33,0.00,,,0.00,9.000000,,2013-07-02 03:32:00,
2013-07-01 21:43:00,71.0,40.0,-100.00,ENE,58,3.0,9.0,33,0.00,,,0.00,9.000000,,2013-07-02 03:43:00,
2013-07-01 21:53:00,71.0,40.0,-100.00,ENE,58,3.0,9.0,33,0.00,,,0.00,9.000000,,2013-07-02 03:53:00,
2013-07-01 22:22:00,69.0,40.0,-100.00,ENE,76,5.0,9.0,35,0.00,,,0.00,0.000000,,2013-07-02 04:22:00,
2013-07-01 22:32:00,69.0,40.0,-100.00,ENE,76,5.0,9.0,35,0.00,,,0.00,0.000000,,2013-07-02 04:32:00,
2013-07-01 22:42:00,69.0,40.0,-100.00,ENE,76,5.0,9.0,35,0.00,,,0.00,0.000000,,2013-07-02 04:42:00,
2013-07-01 22:53:00,69.0,40.0,-100.00,ENE,76,5.0,9.0,35,0.00,,,0.00,0.000000,,2013-07-02 04:53:00,
2013-07-01 23:22:00,66.0,41.0,-100.00,NE,38,2.0,8.0,40,0.00,,,0.00,0.000000,,2013-07-02 05:22:00,
2013-07-01 23:32:00,66.0,41.0,-100.00,NE,38,2.0,8.0,40,0.00,,,0.00,0.000000,,2013-07-02 05:32:00,
2013-07-01 23:43:00,66.0,41.0,-100.00,NE,38,2.0,8.0,40,0.00,,,0.00,0.000000,,2013-07-02 05:43:00,
2013-07-01 23:53:00,66.0,41.0,-100.00,NE,38,2.0,8.0,40,0.00,,,0.00,0.000000,,2013-07-02 05:53:00,